Time;durP1;ratioP1;P1;durP2;ratioP2;P2;SDS_P1;SDS_P2;PMS_P1;PMS_P2;Temp;Humidity;BMP_temperature;BMP_pressure;BME280_temperature;BME280_humidity;BME280_pressure;Samples;Min_cycle;Max_cycle;Signal;HPM_P1;HPM_P2
2021/03/30 00:00:16;;;;;;;4.93;3.37;;;9.80;57.00;;;;;;4826941;29;20525;-79
2021/03/30 00:02:43;;;;;;;5.03;4.30;;;9.80;56.80;;;;;;4826250;29;20469;-78
2021/03/30 00:05:11;;;;;;;3.45;3.15;;;9.80;57.30;;;;;;4826455;29;20465;-79
2021/03/30 00:07:37;;;;;;;3.47;3.17;;;9.80;58.10;;;;;;4825426;29;20752;-79
2021/03/30 00:10:05;;;;;;;4.80;3.60;;;9.70;58.30;;;;;;4826361;29;20468;-78
2021/03/30 00:12:31;;;;;;;5.20;4.43;;;9.70;58.60;;;;;;4825485;29;20499;-79
2021/03/30 00:14:58;;;;;;;4.05;3.65;;;9.70;58.00;;;;;;4825911;29;20448;-79
2021/03/30 00:17:24;;;;;;;3.83;3.17;;;9.70;57.60;;;;;;4825706;29;20244;-79
2021/03/30 00:19:51;;;;;;;3.90;3.47;;;9.60;57.30;;;;;;4826018;29;20218;-79
2021/03/30 00:22:17;;;;;;;5.32;3.10;;;9.60;56.90;;;;;;4826147;29;20208;-79
2021/03/30 00:24:44;;;;;;;3.75;3.17;;;9.60;56.20;;;;;;4825426;29;20225;-79
2021/03/30 00:27:10;;;;;;;4.82;3.75;;;9.60;56.20;;;;;;4825900;29;20231;-79
2021/03/30 00:29:43;;;;;;;3.15;2.95;;;9.60;56.50;;;;;;4825850;29;20600;-79
2021/03/30 00:32:09;;;;;;;3.15;2.85;;;9.60;56.20;;;;;;4825683;29;20328;-79
2021/03/30 00:34:36;;;;;;;3.73;3.40;;;9.60;56.90;;;;;;4825610;29;20219;-78
2021/03/30 00:37:03;;;;;;;3.53;3.17;;;9.50;57.10;;;;;;4825545;29;20487;-79
2021/03/30 00:39:30;;;;;;;3.97;2.55;;;9.50;56.80;;;;;;4825684;29;20317;-80
2021/03/30 00:41:56;;;;;;;2.80;2.60;;;9.50;56.70;;;;;;4825648;29;20214;-79
2021/03/30 00:44:22;;;;;;;4.07;3.03;;;9.40;56.40;;;;;;4826019;29;20215;-79
2021/03/30 00:46:50;;;;;;;4.60;3.37;;;9.40;56.50;;;;;;4825536;29;20485;-79
2021/03/30 00:49:17;;;;;;;3.33;3.05;;;9.40;56.60;;;;;;4825676;29;20463;-79
2021/03/30 00:51:45;;;;;;;3.73;3.40;;;9.30;57.20;;;;;;4824763;29;20215;-79
2021/03/30 00:54:13;;;;;;;3.72;2.97;;;9.30;57.30;;;;;;4825819;29;20471;-79
2021/03/30 00:56:40;;;;;;;3.75;3.10;;;9.30;57.20;;;;;;4825507;29;20637;-78
2021/03/30 00:59:06;;;;;;;5.75;3.50;;;9.20;57.80;;;;;;4825687;29;20666;-79
2021/03/30 01:01:32;;;;;;;3.92;3.55;;;9.20;58.40;;;;;;4838263;29;20222;-79
2021/03/30 01:03:59;;;;;;;3.22;2.92;;;9.10;59.00;;;;;;4843767;29;20216;-78
2021/03/30 01:06:25;;;;;;;4.63;4.32;;;9.10;59.30;;;;;;4837335;29;20328;-78
2021/03/30 01:09:19;;;;;;;3.78;3.47;;;9.00;59.40;;;;;;4829301;29;20225;-81
2021/03/30 01:12:05;;;;;;;2.95;2.75;;;9.00;59.90;;;;;;4827638;29;20223;-81
2021/03/30 01:14:53;;;;;;;5.15;2.83;;;8.90;60.20;;;;;;4828071;29;20588;-81
2021/03/30 01:17:29;;;;;;;3.58;3.28;;;8.90;60.00;;;;;;4828078;29;20291;-81
2021/03/30 01:20:30;;;;;;;7.07;4.05;;;8.80;60.20;;;;;;4831055;29;20221;-81
2021/03/30 01:23:23;;;;;;;4.90;3.70;;;8.80;60.60;;;;;;4830331;29;20213;-78
2021/03/30 01:25:57;;;;;;;2.85;2.65;;;8.80;61.00;;;;;;4806395;29;20214;-80
2021/03/30 01:28:31;;;;;;;4.40;3.00;;;8.70;60.90;;;;;;4830641;29;20242;-81
2021/03/30 01:31:00;;;;;;;2.95;2.75;;;8.70;61.00;;;;;;4830800;29;20225;-81
2021/03/30 01:33:33;;;;;;;4.90;3.42;;;8.70;61.20;;;;;;4830023;29;20237;-80
2021/03/30 01:36:00;;;;;;;3.58;3.33;;;8.70;61.70;;;;;;4830419;29;20226;-80
2021/03/30 01:38:27;;;;;;;6.40;3.38;;;8.60;62.80;;;;;;4830133;29;20233;-79
2021/03/30 01:40:55;;;;;;;4.50;3.15;;;8.60;63.70;;;;;;4830143;29;20213;-80
2021/03/30 01:43:24;;;;;;;7.40;3.50;;;8.60;64.00;;;;;;4830106;29;20607;-81
2021/03/30 01:45:53;;;;;;;5.63;3.17;;;8.60;64.50;;;;;;4830527;29;20214;-81
2021/03/30 01:48:21;;;;;;;3.83;3.35;;;8.50;64.30;;;;;;4830547;29;20294;-81
2021/03/30 01:50:48;;;;;;;4.20;3.28;;;8.50;63.70;;;;;;4830417;29;20211;-80
2021/03/30 01:53:17;;;;;;;6.80;6.30;;;8.50;63.80;;;;;;4829711;29;20238;-79
2021/03/30 01:55:44;;;;;;;3.95;3.55;;;8.50;63.60;;;;;;4830239;29;20221;-80
2021/03/30 01:58:12;;;;;;;4.20;3.60;;;8.50;63.70;;;;;;4829733;29;20240;-80
2021/03/30 02:00:38;;;;;;;4.63;3.67;;;8.40;63.90;;;;;;4830396;29;20577;-81
2021/03/30 02:03:07;;;;;;;3.50;3.20;;;8.40;64.40;;;;;;4829912;29;20221;-80
2021/03/30 02:05:35;;;;;;;4.07;3.65;;;8.30;64.90;;;;;;4830027;29;20214;-79
2021/03/30 02:08:02;;;;;;;3.30;2.95;;;8.40;65.50;;;;;;4829849;29;20241;-79
2021/03/30 02:10:33;;;;;;;3.15;2.95;;;8.30;65.10;;;;;;4829299;29;20304;-81
2021/03/30 02:13:01;;;;;;;5.50;2.92;;;8.30;64.80;;;;;;4829034;29;20281;-80
2021/03/30 02:15:28;;;;;;;3.85;3.55;;;8.20;64.80;;;;;;4832241;29;20214;-80
2021/03/30 02:18:02;;;;;;;3.92;2.90;;;8.20;65.20;;;;;;4832085;29;20665;-81
2021/03/30 02:20:34;;;;;;;3.97;3.67;;;8.10;65.40;;;;;;4831335;29;20220;-82
2021/03/30 02:23:05;;;;;;;3.95;3.58;;;8.10;65.40;;;;;;4829661;29;20225;-80
2021/03/30 02:25:33;;;;;;;4.35;3.00;;;8.10;65.70;;;;;;4829870;29;20210;-79
2021/03/30 02:28:04;;;;;;;3.50;2.95;;;8.00;66.10;;;;;;4829714;29;20804;-80
2021/03/30 02:30:34;;;;;;;4.35;3.55;;;8.00;66.40;;;;;;4828471;29;20224;-81
2021/03/30 02:33:00;;;;;;;3.38;3.08;;;8.00;66.80;;;;;;4829229;29;20583;-80
2021/03/30 02:35:28;;;;;;;3.60;3.33;;;8.00;67.40;;;;;;4829360;29;20589;-80
2021/03/30 02:37:56;;;;;;;4.20;3.90;;;7.90;67.20;;;;;;4829350;29;20302;-80
2021/03/30 02:40:24;;;;;;;4.75;3.00;;;7.90;67.80;;;;;;4829294;29;20224;-80
2021/03/30 02:42:53;;;;;;;3.08;2.67;;;7.80;67.90;;;;;;4828687;29;20214;-80
2021/03/30 02:45:24;;;;;;;6.22;2.72;;;7.80;68.00;;;;;;4829202;29;20211;-80
2021/03/30 02:47:51;;;;;;;4.80;3.28;;;7.80;68.10;;;;;;4828833;29;20244;-80
2021/03/30 02:50:21;;;;;;;4.55;4.15;;;7.80;68.30;;;;;;4828869;29;20270;-81
2021/03/30 02:52:48;;;;;;;3.30;3.13;;;7.80;68.80;;;;;;4828194;29;20293;-81
2021/03/30 02:55:15;;;;;;;6.00;3.80;;;7.80;69.20;;;;;;4829144;29;20632;-80
2021/03/30 02:57:42;;;;;;;3.50;3.20;;;7.70;69.90;;;;;;4828353;29;20234;-80
2021/03/30 03:00:11;;;;;;;3.65;3.33;;;7.70;70.40;;;;;;4827454;29;20247;-80
2021/03/30 03:02:38;;;;;;;3.90;3.70;;;7.70;70.60;;;;;;4828422;29;20299;-81
2021/03/30 03:05:06;;;;;;;3.67;3.20;;;7.70;70.80;;;;;;4828495;29;20217;-78
2021/03/30 03:07:34;;;;;;;3.53;2.83;;;7.60;71.20;;;;;;4828467;29;20229;-81
2021/03/30 03:10:01;;;;;;;5.65;3.78;;;7.60;71.50;;;;;;4828779;29;20214;-80
2021/03/30 03:12:29;;;;;;;3.50;3.20;;;7.60;72.00;;;;;;4828459;29;20234;-80
2021/03/30 03:14:58;;;;;;;4.65;3.50;;;7.50;72.20;;;;;;4828737;29;20219;-80
2021/03/30 03:17:24;;;;;;;4.50;3.40;;;7.50;72.70;;;;;;4828454;29;20649;-80
2021/03/30 03:19:52;;;;;;;4.15;3.22;;;7.50;73.00;;;;;;4828596;29;20221;-80
2021/03/30 03:22:18;;;;;;;5.03;3.10;;;7.40;73.20;;;;;;4828308;29;20266;-80
2021/03/30 03:24:47;;;;;;;4.85;3.85;;;7.40;73.30;;;;;;4828624;29;20218;-79
2021/03/30 03:27:13;;;;;;;7.82;3.45;;;7.40;73.30;;;;;;4828270;29;20234;-80
2021/03/30 03:29:39;;;;;;;10.40;5.50;;;7.30;73.70;;;;;;4828222;29;20261;-80
2021/03/30 03:32:07;;;;;;;4.80;4.35;;;7.30;74.10;;;;;;4827653;29;20228;-80
2021/03/30 03:34:34;;;;;;;4.35;3.70;;;7.30;74.40;;;;;;4828154;29;20220;-81
2021/03/30 03:37:01;;;;;;;6.88;4.85;;;7.30;74.50;;;;;;4828280;29;20233;-81
2021/03/30 03:39:28;;;;;;;5.78;5.13;;;7.30;74.90;;;;;;4828476;29;20217;-79
2021/03/30 03:41:54;;;;;;;5.28;3.75;;;7.20;75.00;;;;;;4828046;29;20218;-80
2021/03/30 03:44:20;;;;;;;7.10;5.00;;;7.20;75.10;;;;;;4828299;29;20214;-80
2021/03/30 03:46:48;;;;;;;5.88;3.67;;;7.20;75.40;;;;;;4827851;29;20259;-80
2021/03/30 03:49:16;;;;;;;4.70;4.30;;;7.10;75.60;;;;;;4828704;29;20273;-80
2021/03/30 03:51:45;;;;;;;6.20;4.63;;;7.10;75.90;;;;;;4827965;29;20225;-81
2021/03/30 03:54:16;;;;;;;4.45;3.97;;;7.10;76.30;;;;;;4828077;29;20263;-80
2021/03/30 03:56:45;;;;;;;7.20;4.57;;;7.10;76.60;;;;;;4828731;29;20242;-81
2021/03/30 03:59:16;;;;;;;5.50;4.30;;;7.10;77.10;;;;;;4828143;29;20214;-80
2021/03/30 04:01:47;;;;;;;5.78;5.18;;;7.10;77.70;;;;;;4828115;29;20379;-80
2021/03/30 04:04:25;;;;;;;5.63;3.80;;;7.10;77.90;;;;;;4827502;29;20645;-78
2021/03/30 04:06:56;;;;;;;6.55;4.32;;;7.00;78.20;;;;;;4828167;29;20324;-80
2021/03/30 04:09:24;;;;;;;4.93;4.25;;;7.00;78.50;;;;;;4828396;29;20599;-81
2021/03/30 04:11:53;;;;;;;4.55;4.05;;;7.00;78.90;;;;;;4828766;29;20213;-80
2021/03/30 04:14:20;;;;;;;7.72;3.30;;;7.00;79.20;;;;;;4828623;29;20244;-80
2021/03/30 04:16:46;;;;;;;3.60;3.30;;;7.00;78.90;;;;;;4827597;29;20306;-80
2021/03/30 04:19:13;;;;;;;4.20;3.38;;;6.90;78.80;;;;;;4827296;29;20224;-80
2021/03/30 04:21:40;;;;;;;5.00;4.50;;;6.90;79.20;;;;;;4827304;29;20213;-81
2021/03/30 04:24:08;;;;;;;5.70;4.15;;;6.80;79.60;;;;;;4827102;29;20233;-80
2021/03/30 04:26:35;;;;;;;4.05;3.70;;;6.80;79.80;;;;;;4827310;29;20298;-80
2021/03/30 04:29:02;;;;;;;6.13;4.60;;;6.80;80.10;;;;;;4827518;29;20221;-81
2021/03/30 04:31:28;;;;;;;5.57;4.85;;;6.80;80.80;;;;;;4827035;29;20233;-79
2021/03/30 04:33:54;;;;;;;5.78;5.15;;;6.80;81.70;;;;;;4827257;29;20699;-80
2021/03/30 04:36:21;;;;;;;7.97;6.43;;;6.80;82.60;;;;;;4826920;29;20234;-80
2021/03/30 04:38:48;;;;;;;9.60;6.25;;;6.80;83.40;;;;;;4827544;29;20235;-80
2021/03/30 04:41:14;;;;;;;7.03;5.88;;;6.70;84.10;;;;;;4827731;29;20217;-79
2021/03/30 04:43:41;;;;;;;7.72;6.22;;;6.70;85.00;;;;;;4826903;29;20213;-80
2021/03/30 04:46:07;;;;;;;7.57;4.82;;;6.70;85.80;;;;;;4827236;29;20232;-80
2021/03/30 04:48:33;;;;;;;8.77;7.10;;;6.70;86.40;;;;;;4827108;29;20236;-80
2021/03/30 04:51:00;;;;;;;7.88;5.93;;;6.70;86.70;;;;;;4826826;29;20240;-80
2021/03/30 04:53:27;;;;;;;4.97;4.57;;;6.70;87.00;;;;;;4830328;29;20258;-80
2021/03/30 04:55:54;;;;;;;10.63;6.45;;;6.70;87.00;;;;;;4833618;29;20217;-80
2021/03/30 04:58:21;;;;;;;7.22;5.00;;;6.70;87.10;;;;;;4832788;29;20275;-80
2021/03/30 05:00:47;;;;;;;7.30;5.60;;;6.70;87.20;;;;;;4833346;29;20218;-80
2021/03/30 05:03:13;;;;;;;6.93;6.20;;;6.70;87.50;;;;;;4832896;29;20222;-80
2021/03/30 05:05:40;;;;;;;7.63;5.80;;;6.70;87.70;;;;;;4835012;29;20225;-78
2021/03/30 05:08:06;;;;;;;8.32;4.82;;;6.70;87.80;;;;;;4836393;29;20237;-79
2021/03/30 05:10:33;;;;;;;7.55;5.43;;;6.70;87.90;;;;;;4837085;29;20242;-79
2021/03/30 05:13:00;;;;;;;7.75;6.88;;;6.70;88.10;;;;;;4835934;29;20232;-78
2021/03/30 05:15:26;;;;;;;6.93;6.22;;;6.70;88.90;;;;;;4836297;29;20213;-80
2021/03/30 05:17:52;;;;;;;7.05;6.45;;;6.70;89.50;;;;;;4834449;29;20301;-78
2021/03/30 05:20:18;;;;;;;6.32;5.75;;;6.70;90.10;;;;;;4838066;29;20243;-79
2021/03/30 05:22:45;;;;;;;8.95;5.25;;;6.70;90.50;;;;;;4836629;29;20206;-78
2021/03/30 05:25:12;;;;;;;9.13;5.70;;;6.70;91.00;;;;;;4835370;29;20250;-79
2021/03/30 05:27:39;;;;;;;8.73;5.95;;;6.70;91.30;;;;;;4837698;29;20229;-79
2021/03/30 05:30:09;;;;;;;6.20;5.60;;;6.70;91.50;;;;;;4837013;29;20221;-78
2021/03/30 05:32:35;;;;;;;8.55;7.72;;;6.80;91.70;;;;;;4836566;29;20604;-80
2021/03/30 05:35:01;;;;;;;6.55;5.78;;;6.80;91.90;;;;;;4835131;29;20216;-77
2021/03/30 05:37:28;;;;;;;7.75;6.55;;;6.80;92.10;;;;;;4838604;29;20242;-78
2021/03/30 05:39:54;;;;;;;6.68;5.80;;;6.80;92.40;;;;;;4837348;29;20243;-80
2021/03/30 05:42:20;;;;;;;6.43;5.70;;;6.70;92.60;;;;;;4839019;29;20207;-79
2021/03/30 05:44:51;;;;;;;11.00;6.57;;;6.80;92.90;;;;;;4836253;29;20209;-80
2021/03/30 05:47:20;;;;;;;7.70;7.00;;;6.80;93.00;;;;;;4836048;29;20283;-79
2021/03/30 05:49:48;;;;;;;7.68;6.93;;;6.80;93.20;;;;;;4837401;29;20221;-81
2021/03/30 05:52:18;;;;;;;6.47;5.82;;;6.80;93.40;;;;;;4832970;29;20246;-80
2021/03/30 05:54:47;;;;;;;7.43;6.30;;;6.90;93.60;;;;;;4835502;29;20270;-80
2021/03/30 05:57:16;;;;;;;8.70;8.02;;;6.90;94.20;;;;;;4834264;29;20248;-80
2021/03/30 05:59:45;;;;;;;9.60;6.88;;;6.90;94.20;;;;;;4832425;29;20240;-80
2021/03/30 06:02:21;;;;;;;6.60;6.07;;;7.00;94.50;;;;;;4832073;29;20221;-80
2021/03/30 06:04:48;;;;;;;6.88;5.65;;;7.00;94.90;;;;;;4829425;29;20294;-81
2021/03/30 06:07:14;;;;;;;6.82;6.22;;;7.00;95.20;;;;;;4829602;29;20234;-78
2021/03/30 06:09:43;;;;;;;8.23;7.57;;;7.10;95.50;;;;;;4829064;29;20216;-80
2021/03/30 06:12:12;;;;;;;6.75;5.93;;;7.10;95.70;;;;;;4829398;29;20225;-80
2021/03/30 06:14:40;;;;;;;8.50;7.45;;;7.20;95.80;;;;;;4830571;29;20218;-78
2021/03/30 06:17:09;;;;;;;8.60;6.30;;;7.30;96.00;;;;;;4833132;29;20234;-77
2021/03/30 06:20:04;;;;;;;9.23;6.88;;;7.40;95.90;;;;;;4830519;29;20232;-80
2021/03/30 06:22:30;;;;;;;11.57;6.70;;;7.50;95.70;;;;;;4797236;29;20214;-78
2021/03/30 06:24:56;;;;;;;12.10;6.70;;;7.60;95.20;;;;;;4830390;29;20214;-78
2021/03/30 06:27:25;;;;;;;10.80;7.30;;;7.70;94.90;;;;;;4830795;29;20282;-81
2021/03/30 06:29:53;;;;;;;8.43;6.40;;;7.80;94.70;;;;;;4829828;29;20219;-81
2021/03/30 06:32:21;;;;;;;7.95;7.35;;;7.90;94.50;;;;;;4829543;29;20221;-81
2021/03/30 06:34:50;;;;;;;8.40;7.05;;;7.90;94.30;;;;;;4829666;29;20215;-81
2021/03/30 06:37:38;;;;;;;17.83;7.57;;;8.10;94.30;;;;;;4829374;29;20267;-81
2021/03/30 06:40:21;;;;;;;8.63;5.95;;;8.10;94.10;;;;;;4829744;29;20243;-80
2021/03/30 06:42:50;;;;;;;9.10;7.00;;;8.20;93.70;;;;;;4829330;29;20268;-80
2021/03/30 06:45:19;;;;;;;11.15;7.20;;;8.30;93.30;;;;;;4823708;29;20250;-79
2021/03/30 06:47:48;;;;;;;10.05;7.13;;;8.40;93.10;;;;;;4820314;29;20236;-81
2021/03/30 06:50:20;;;;;;;15.15;7.05;;;8.50;92.90;;;;;;4818417;29;20209;-81
2021/03/30 06:52:47;;;;;;;10.98;5.90;;;8.60;92.70;;;;;;4819288;29;20222;-81
2021/03/30 06:55:14;;;;;;;13.73;8.05;;;8.70;92.50;;;;;;4820627;29;20210;-81
2021/03/30 06:57:43;;;;;;;12.38;8.77;;;8.80;91.80;;;;;;4817715;29;20308;-78
2021/03/30 07:00:18;;;;;;;13.55;7.47;;;8.90;91.40;;;;;;4818372;29;20210;-81
2021/03/30 07:02:47;;;;;;;13.57;7.23;;;9.00;91.30;;;;;;4818871;29;20682;-78
2021/03/30 07:05:37;;;;;;;14.95;7.28;;;9.10;91.20;;;;;;4818149;29;20492;-81
2021/03/30 07:08:06;;;;;;;12.03;7.10;;;9.30;91.00;;;;;;4821882;29;20319;-80
2021/03/30 07:10:34;;;;;;;15.45;9.57;;;9.30;90.70;;;;;;4829100;29;20819;-82
2021/03/30 07:13:00;;;;;;;9.00;6.90;;;9.50;90.70;;;;;;4833455;29;20238;-82
2021/03/30 07:15:27;;;;;;;14.27;7.20;;;9.60;90.70;;;;;;4833747;29;20889;-82
2021/03/30 07:18:15;;;;;;;12.20;8.57;;;9.70;90.40;;;;;;4833493;29;20491;-80
2021/03/30 07:20:44;;;;;;;10.63;7.07;;;9.90;90.10;;;;;;4833906;29;20637;-79
2021/03/30 07:23:13;;;;;;;11.05;6.97;;;10.00;88.20;;;;;;4832975;29;20287;-81
2021/03/30 07:25:49;;;;;;;7.27;6.17;;;10.20;87.80;;;;;;4831253;29;20215;-81
2021/03/30 07:28:21;;;;;;;8.17;6.00;;;10.30;87.60;;;;;;4830185;29;20896;-80
2021/03/30 07:30:53;;;;;;;15.63;7.35;;;10.40;87.20;;;;;;4827960;29;20480;-81
2021/03/30 07:33:24;;;;;;;8.77;5.87;;;10.60;86.10;;;;;;4828543;29;20243;-82
2021/03/30 07:35:52;;;;;;;11.73;6.40;;;10.70;85.50;;;;;;4829856;29;20464;-81
2021/03/30 07:38:20;;;;;;;7.33;6.30;;;10.90;85.30;;;;;;4828275;29;20554;-81
2021/03/30 07:40:48;;;;;;;7.43;6.60;;;11.00;84.00;;;;;;4828631;29;20463;-81
2021/03/30 07:43:22;;;;;;;8.13;6.10;;;11.10;83.60;;;;;;4827922;29;20549;-81
2021/03/30 07:45:49;;;;;;;11.60;6.67;;;11.20;83.30;;;;;;4828459;29;20466;-81
2021/03/30 07:48:18;;;;;;;14.60;7.03;;;11.40;83.00;;;;;;4827779;29;20495;-79
2021/03/30 07:50:50;;;;;;;8.30;5.73;;;11.50;82.60;;;;;;4828049;29;20564;-81
2021/03/30 07:53:39;;;;;;;8.30;6.83;;;11.60;83.10;;;;;;4827378;29;20502;-81
2021/03/30 07:56:07;;;;;;;10.00;7.37;;;11.70;82.90;;;;;;4827457;29;20462;-81
2021/03/30 07:58:38;;;;;;;12.60;6.97;;;11.90;82.50;;;;;;4827175;29;20563;-81
2021/03/30 08:01:05;;;;;;;12.63;6.23;;;12.00;81.40;;;;;;4828217;29;20466;-81
2021/03/30 08:03:34;;;;;;;7.13;4.60;;;12.10;80.70;;;;;;4841771;29;20459;-79
2021/03/30 08:06:19;;;;;;;11.20;6.20;;;12.20;79.20;;;;;;4841189;29;20461;-78
2021/03/30 08:08:48;;;;;;;6.93;6.03;;;12.30;79.30;;;;;;4834005;29;20470;-81
2021/03/30 08:11:15;;;;;;;6.57;5.93;;;12.50;79.80;;;;;;4827330;29;20437;-81
2021/03/30 08:13:49;;;;;;;10.53;7.07;;;12.60;79.30;;;;;;4827431;29;20499;-81
2021/03/30 08:16:18;;;;;;;10.67;6.90;;;12.80;79.20;;;;;;4828872;29;20497;-80
2021/03/30 08:18:46;;;;;;;5.50;5.00;;;12.90;79.20;;;;;;4838362;29;20457;-80
2021/03/30 08:21:14;;;;;;;9.10;6.07;;;13.00;78.10;;;;;;4846236;29;20953;-81
2021/03/30 08:24:07;;;;;;;5.70;5.10;;;13.20;77.40;;;;;;4846503;29;20488;-82
2021/03/30 08:26:37;;;;;;;6.83;6.13;;;13.30;75.90;;;;;;4845532;29;20509;-83
2021/03/30 08:29:06;;;;;;;7.13;5.70;;;13.50;76.90;;;;;;4849107;29;20459;-83
2021/03/30 08:31:35;;;;;;;7.60;6.80;;;13.60;77.30;;;;;;4843510;29;20489;-81
2021/03/30 08:34:05;;;;;;;8.83;7.67;;;13.80;76.90;;;;;;4846868;29;20490;-82
2021/03/30 08:36:34;;;;;;;8.07;5.70;;;14.00;77.40;;;;;;4845201;29;20466;-80
2021/03/30 08:39:05;;;;;;;9.10;6.50;;;14.10;76.80;;;;;;4845494;29;20447;-80
2021/03/30 08:42:07;;;;;;;9.33;6.50;;;14.30;75.60;;;;;;4845542;29;20455;-82
2021/03/30 08:44:40;;;;;;;6.90;6.13;;;14.40;75.30;;;;;;4843440;29;21040;-82
2021/03/30 08:47:07;;;;;;;8.50;6.77;;;14.60;75.00;;;;;;4845512;29;20988;-81
2021/03/30 08:49:37;;;;;;;6.87;6.03;;;14.70;75.30;;;;;;4845795;29;20464;-80
2021/03/30 08:52:06;;;;;;;7.40;5.97;;;14.80;76.00;;;;;;4845962;29;20455;-82
2021/03/30 08:54:35;;;;;;;10.87;6.40;;;14.90;74.10;;;;;;4845131;29;20580;-82
2021/03/30 08:57:05;;;;;;;11.43;6.67;;;15.10;74.20;;;;;;4844292;29;20691;-82
2021/03/30 08:59:32;;;;;;;7.73;6.97;;;15.20;74.60;;;;;;4842886;29;20897;-79
2021/03/30 09:02:04;;;;;;;8.73;5.40;;;15.30;74.80;;;;;;4845364;29;20448;-82
2021/03/30 09:04:36;;;;;;;7.20;6.47;;;15.40;75.50;;;;;;4845929;29;20497;-82
2021/03/30 09:07:03;;;;;;;8.93;6.33;;;15.60;74.10;;;;;;4844443;29;20488;-81
2021/03/30 09:09:34;;;;;;;7.90;6.73;;;15.70;73.60;;;;;;4844432;29;20516;-80
2021/03/30 09:12:03;;;;;;;9.03;6.50;;;15.80;73.00;;;;;;4843818;29;20563;-80
2021/03/30 09:14:30;;;;;;;7.13;5.17;;;16.00;71.20;;;;;;4843736;29;20546;-83
2021/03/30 09:17:08;;;;;;;5.20;4.70;;;16.10;69.20;;;;;;4844222;29;20483;-82
2021/03/30 09:19:43;;;;;;;9.03;5.37;;;16.20;69.00;;;;;;4844208;29;20462;-82
2021/03/30 09:22:14;;;;;;;9.60;6.67;;;16.30;67.00;;;;;;4844000;29;20911;-80
2021/03/30 09:25:08;;;;;;;5.97;5.40;;;16.50;66.00;;;;;;4844277;29;20471;-81
2021/03/30 09:27:36;;;;;;;6.13;5.23;;;16.60;67.20;;;;;;4844222;29;20479;-82
2021/03/30 09:30:09;;;;;;;4.90;4.50;;;16.70;64.80;;;;;;4844818;29;20468;-83
2021/03/30 09:32:38;;;;;;;8.50;5.00;;;16.80;62.40;;;;;;4844291;29;20452;-78
2021/03/30 09:35:06;;;;;;;5.57;5.07;;;16.90;62.60;;;;;;4843632;29;20459;-81
2021/03/30 09:37:34;;;;;;;6.27;5.67;;;17.10;62.10;;;;;;4843822;29;20485;-82
2021/03/30 09:40:06;;;;;;;5.33;4.87;;;17.20;61.20;;;;;;4846378;29;20555;-81
2021/03/30 09:42:32;;;;;;;5.93;4.60;;;17.30;61.10;;;;;;4847663;29;20469;-84
2021/03/30 09:45:00;;;;;;;7.90;4.70;;;17.50;62.20;;;;;;4853606;29;20461;-79
2021/03/30 09:47:28;;;;;;;5.50;4.63;;;17.60;59.70;;;;;;4855459;29;20488;-79
2021/03/30 09:49:55;;;;;;;4.60;4.20;;;17.80;59.70;;;;;;4848076;29;20492;-79
2021/03/30 09:52:22;;;;;;;6.70;4.90;;;18.00;58.60;;;;;;4848267;29;20457;-81
2021/03/30 09:54:48;;;;;;;4.60;4.17;;;18.10;58.40;;;;;;4847855;29;20500;-80
2021/03/30 09:57:16;;;;;;;7.90;4.63;;;18.20;58.20;;;;;;4847303;29;20476;-82
2021/03/30 09:59:46;;;;;;;4.50;4.03;;;18.40;56.50;;;;;;4847294;29;20912;-81
2021/03/30 10:02:14;;;;;;;10.43;5.77;;;18.50;55.40;;;;;;4847448;29;20521;-80
2021/03/30 10:04:41;;;;;;;5.80;4.00;;;18.60;55.30;;;;;;4847351;29;20465;-80
2021/03/30 10:07:15;;;;;;;4.10;3.63;;;18.80;55.40;;;;;;4847618;29;20491;-82
2021/03/30 10:10:02;;;;;;;3.90;3.50;;;18.90;54.00;;;;;;4847860;29;20552;-82
2021/03/30 10:12:31;;;;;;;6.30;4.07;;;19.10;54.60;;;;;;4847369;29;20456;-82
2021/03/30 10:14:58;;;;;;;4.33;3.93;;;19.20;55.40;;;;;;4848786;29;20492;-81
2021/03/30 10:17:27;;;;;;;6.83;5.27;;;19.40;55.50;;;;;;4849658;29;20478;-79
2021/03/30 10:19:56;;;;;;;7.20;6.60;;;19.50;51.00;;;;;;4849493;29;20451;-81
2021/03/30 10:22:27;;;;;;;5.10;4.60;;;19.70;50.50;;;;;;4848538;29;20548;-81
2021/03/30 10:25:11;;;;;;;4.20;3.77;;;19.90;51.80;;;;;;4847703;29;20895;-80
2021/03/30 10:27:39;;;;;;;4.70;4.30;;;20.00;49.50;;;;;;4847599;29;20500;-81
2021/03/30 10:30:07;;;;;;;4.77;4.37;;;20.10;46.50;;;;;;4847372;29;21042;-77
2021/03/30 10:32:46;;;;;;;4.10;3.80;;;20.30;46.90;;;;;;4847618;29;20545;-79
2021/03/30 10:35:12;;;;;;;5.20;4.70;;;20.40;47.20;;;;;;4847159;29;20929;-81
2021/03/30 10:37:39;;;;;;;4.73;4.33;;;20.50;46.50;;;;;;4847196;29;20477;-80
2021/03/30 10:40:06;;;;;;;5.73;4.43;;;20.70;46.40;;;;;;4846587;29;20458;-78
2021/03/30 10:42:37;;;;;;;4.50;4.10;;;20.90;47.90;;;;;;4846738;29;20462;-80
2021/03/30 10:45:06;;;;;;;5.70;4.60;;;21.10;47.50;;;;;;4843964;29;20466;-80
2021/03/30 10:47:34;;;;;;;5.33;3.97;;;21.30;45.80;;;;;;4846996;29;20482;-81
2021/03/30 10:50:03;;;;;;;4.23;3.93;;;21.40;46.00;;;;;;4846678;29;20460;-80
2021/03/30 10:52:31;;;;;;;5.10;4.00;;;21.60;46.40;;;;;;4845991;29;20459;-79
2021/03/30 10:54:59;;;;;;;4.67;4.27;;;21.80;44.30;;;;;;4846165;29;20501;-80
2021/03/30 10:57:27;;;;;;;4.33;3.93;;;22.00;44.60;;;;;;4850872;29;21174;-80
2021/03/30 10:59:56;;;;;;;5.27;4.67;;;22.20;44.40;;;;;;4854775;29;20504;-75
2021/03/30 11:02:22;;;;;;;7.10;4.87;;;22.50;44.60;;;;;;4852987;29;20466;-78
2021/03/30 11:04:49;;;;;;;5.90;5.40;;;22.70;43.10;;;;;;4853354;29;20469;-81
2021/03/30 11:07:16;;;;;;;7.10;5.17;;;23.10;42.30;;;;;;4847094;29;20478;-81
2021/03/30 11:09:43;;;;;;;5.50;4.83;;;23.60;41.70;;;;;;4846427;29;20470;-81
2021/03/30 11:12:10;;;;;;;6.30;4.63;;;24.30;41.90;;;;;;4847149;29;20939;-80
2021/03/30 11:14:37;;;;;;;5.03;4.63;;;24.90;40.00;;;;;;4847116;29;20506;-81
2021/03/30 11:17:03;;;;;;;5.50;5.00;;;25.50;39.40;;;;;;4846254;29;20483;-79
2021/03/30 11:19:30;;;;;;;5.27;4.40;;;26.30;40.60;;;;;;4846040;29;20498;-79
2021/03/30 11:21:56;;;;;;;4.50;4.07;;;27.20;39.80;;;;;;4845831;29;20504;-80
2021/03/30 11:24:25;;;;;;;9.97;5.73;;;28.10;37.60;;;;;;4845767;29;20456;-81
2021/03/30 11:26:54;;;;;;;5.40;4.90;;;28.90;33.30;;;;;;4862250;29;20474;-77
2021/03/30 11:29:24;;;;;;;6.70;4.97;;;29.50;30.70;;;;;;4862736;29;20462;-77
2021/03/30 11:34:38;;;;;;;5.60;5.03;;;29.80;30.40;;;;;;4835996;29;20505;-80
2021/03/30 11:37:14;;;;;;;4.93;4.47;;;30.00;29.90;;;;;;4827742;29;20487;-79
2021/03/30 11:39:41;;;;;;;4.67;4.27;;;30.10;30.00;;;;;;4826878;29;20553;-80
2021/03/30 11:42:09;;;;;;;6.80;6.20;;;30.40;30.50;;;;;;4827127;29;20821;-81
2021/03/30 11:44:35;;;;;;;5.17;4.60;;;30.90;29.30;;;;;;4827902;29;20460;-81
2021/03/30 11:47:01;;;;;;;4.97;4.57;;;31.40;28.30;;;;;;4827775;29;20486;-80
2021/03/30 11:49:28;;;;;;;4.73;4.23;;;31.90;27.90;;;;;;4827906;29;20456;-80
2021/03/30 11:51:55;;;;;;;5.10;4.60;;;32.30;28.00;;;;;;4827299;29;20465;-81
2021/03/30 11:54:22;;;;;;;5.37;4.87;;;32.70;27.20;;;;;;4827691;29;20488;-81
2021/03/30 11:56:50;;;;;;;5.30;4.20;;;33.10;27.90;;;;;;4827793;29;20899;-81
2021/03/30 11:59:16;;;;;;;7.13;4.73;;;33.70;27.30;;;;;;4828120;29;20463;-81
2021/03/30 12:01:43;;;;;;;7.07;4.77;;;34.30;27.80;;;;;;4827002;29;20833;-79
2021/03/30 12:04:09;;;;;;;4.33;4.03;;;34.90;26.40;;;;;;4826870;29;20503;-80
2021/03/30 12:06:36;;;;;;;4.40;4.00;;;35.20;23.70;;;;;;4826293;29;20504;-80
2021/03/30 12:09:03;;;;;;;5.00;4.60;;;35.40;23.10;;;;;;4827480;29;20455;-81
2021/03/30 12:11:30;;;;;;;4.53;4.13;;;35.50;23.90;;;;;;4827002;29;20794;-81
2021/03/30 12:13:57;;;;;;;4.10;3.80;;;35.60;24.60;;;;;;4827144;29;20496;-81
2021/03/30 12:16:25;;;;;;;5.03;4.53;;;35.90;23.20;;;;;;4827296;29;20824;-81
2021/03/30 12:18:51;;;;;;;4.37;4.07;;;36.00;21.70;;;;;;4829834;29;20534;-80
2021/03/30 12:21:17;;;;;;;4.90;4.50;;;36.00;22.80;;;;;;4833883;29;20501;-81
2021/03/30 12:23:44;;;;;;;5.00;4.40;;;36.30;23.70;;;;;;4833021;29;20487;-82
2021/03/30 12:26:10;;;;;;;4.07;3.77;;;36.70;22.70;;;;;;4827540;29;20463;-81
2021/03/30 12:28:36;;;;;;;4.63;4.10;;;36.90;21.80;;;;;;4835683;29;20447;-82
2021/03/30 12:31:03;;;;;;;4.97;4.47;;;37.10;21.60;;;;;;4843893;29;20471;-82
2021/03/30 12:33:30;;;;;;;4.60;4.20;;;37.20;21.40;;;;;;4843870;29;20458;-82
2021/03/30 12:35:58;;;;;;;4.37;4.00;;;37.40;21.00;;;;;;4842875;29;20829;-81
2021/03/30 12:38:25;;;;;;;3.87;3.57;;;37.70;21.30;;;;;;4843073;29;20471;-82
2021/03/30 12:40:57;;;;;;;3.93;3.60;;;38.10;21.40;;;;;;4842629;29;20534;-82
2021/03/30 13:15:08;;;;;;;;;;;;;;;;;;;;;
2021/03/30 13:42:26;;;;;;;;;;;;;;;;;;;;;
2021/03/30 13:54:55;;;;;;;4.07;3.70;;;41.20;15.20;;;;;;4723648;30;20470;-79
2021/03/30 15:21:16;;;;;;;5.77;5.37;;;32.10;22.10;;;;;;4670440;30;20572;-81
2021/03/30 15:23:45;;;;;;;5.77;5.17;;;32.30;22.20;;;;;;4740406;30;20529;-81
2021/03/30 15:26:29;;;;;;;5.20;4.80;;;32.30;22.00;;;;;;4774622;29;20561;-82
2021/03/30 15:29:14;;;;;;;5.70;5.27;;;32.20;22.20;;;;;;4834429;29;20470;-82
2021/03/30 15:31:42;;;;;;;5.20;4.70;;;31.90;22.20;;;;;;4839628;29;20681;-82
2021/03/30 15:34:09;;;;;;;5.80;5.30;;;31.70;21.90;;;;;;4840153;29;20475;-81
2021/03/30 15:36:43;;;;;;;4.90;4.50;;;31.30;22.80;;;;;;4839286;29;20923;-81